메인 페이지
METAR-TAF:

METAR-TAF

공항 :

스탠리, 포클랜드 제도

위도: 51-49S, 경도: 058-27W, 고도: 74m

현재 날씨관측

예보는 1 시간 5분 전, 17:50시(UTC)에 발표되었습니다.
북서30kt
온도 17°C
습도 55%
기압 995 hPa
시정 10km 이상
고도 3000ft 상공 구름 조금
고도 22000ft 상공 구름 많음

METAR: EGYP 161750Z 32030KT 9999 FEW030 BKN220 17/08 Q0995 BLU NOSIG

시각: 15:55 (18:55 UTC)

예보

예보는 2 시간 27분 전, 16:28시(UTC)에 발표되었습니다.
예보 대상 시간: 16일 18시부터 17일 12시까지 (UTC)
서북서15kt, 순간 최대 풍속 25kt
시정 10km 이상
1500m 미만 상공 구름 및 적란운 없음
전환 중
16일 22시부터 17일 01시까지 (UTC)
15kt
전환 중
17일 08시부터 17일 10시까지 (UTC)
18kt, 순간 최대 풍속 28kt

TAF: EGYP 161628Z 1618/1712 30015G25KT CAVOK BECMG 1622/1701 26015KT BECMG 1708/1710 26018G28KT

4,000개 이상의 공항 관측 자료 및 예보 (METAR 및 TAF 보고).

지도상에서 검색 가능한 기상관측소가 노란 점과 빨간 점으로 표시되어 있습니다.

기상관측소 명을 보려면 표시 위로 마우스를 이동하세요.

날씨 관측과 예보를 보려면 클릭하세요.

지도 변경 : 확대하려면 엑스 표시가 있는 녹색 버튼, 축소하려면 빼기 표시가 있는 녹색 버튼, 다음 페이지의 지도를 보려면 녹색 화살표를 클릭하세요.


METAR-TAF: